sensor_id;sensor_type;location;lat;lon;timestamp;P1;durP1;ratioP1;P2;durP2;ratioP2
64361;SDS011;50685;53.346;-6.296;2023-04-06T00:01:59;8.73;;;1.67;;
64361;SDS011;50685;53.346;-6.296;2023-04-06T00:04:25;6.47;;;1.85;;
64361;SDS011;50685;53.346;-6.296;2023-04-06T00:06:53;7.30;;;1.75;;
64361;SDS011;50685;53.346;-6.296;2023-04-06T00:09:21;9.20;;;1.77;;
64361;SDS011;50685;53.346;-6.296;2023-04-06T00:11:49;7.35;;;1.83;;
64361;SDS011;50685;53.346;-6.296;2023-04-06T00:14:15;8.45;;;1.45;;
64361;SDS011;50685;53.346;-6.296;2023-04-06T00:16:42;8.43;;;1.60;;
64361;SDS011;50685;53.346;-6.296;2023-04-06T00:19:08;13.65;;;2.33;;
64361;SDS011;50685;53.346;-6.296;2023-04-06T00:21:33;6.13;;;1.65;;
64361;SDS011;50685;53.346;-6.296;2023-04-06T00:24:07;10.75;;;1.80;;
64361;SDS011;50685;53.346;-6.296;2023-04-06T00:26:34;6.93;;;1.73;;
64361;SDS011;50685;53.346;-6.296;2023-04-06T00:29:03;13.70;;;2.42;;
64361;SDS011;50685;53.346;-6.296;2023-04-06T00:31:28;13.60;;;2.40;;
64361;SDS011;50685;53.346;-6.296;2023-04-06T00:33:54;10.48;;;2.40;;
64361;SDS011;50685;53.346;-6.296;2023-04-06T00:36:22;8.07;;;2.17;;
64361;SDS011;50685;53.346;-6.296;2023-04-06T00:38:48;3.75;;;1.80;;
64361;SDS011;50685;53.346;-6.296;2023-04-06T00:41:13;4.80;;;1.95;;
64361;SDS011;50685;53.346;-6.296;2023-04-06T00:43:39;8.65;;;1.77;;
64361;SDS011;50685;53.346;-6.296;2023-04-06T00:46:05;10.30;;;2.35;;
64361;SDS011;50685;53.346;-6.296;2023-04-06T00:48:30;6.57;;;2.42;;
64361;SDS011;50685;53.346;-6.296;2023-04-06T00:51:05;5.90;;;1.63;;
64361;SDS011;50685;53.346;-6.296;2023-04-06T00:53:34;4.55;;;1.27;;
64361;SDS011;50685;53.346;-6.296;2023-04-06T00:56:00;6.22;;;1.77;;
64361;SDS011;50685;53.346;-6.296;2023-04-06T00:58:25;13.40;;;2.83;;
64361;SDS011;50685;53.346;-6.296;2023-04-06T01:00:54;6.43;;;2.28;;
64361;SDS011;50685;53.346;-6.296;2023-04-06T01:03:22;5.43;;;2.10;;
64361;SDS011;50685;53.346;-6.296;2023-04-06T01:05:48;7.85;;;2.08;;
64361;SDS011;50685;53.346;-6.296;2023-04-06T01:08:17;10.23;;;1.55;;
64361;SDS011;50685;53.346;-6.296;2023-04-06T01:10:43;9.23;;;1.80;;
64361;SDS011;50685;53.346;-6.296;2023-04-06T01:13:08;7.90;;;1.70;;
64361;SDS011;50685;53.346;-6.296;2023-04-06T01:15:37;8.48;;;2.05;;
64361;SDS011;50685;53.346;-6.296;2023-04-06T01:18:08;8.65;;;1.70;;
64361;SDS011;50685;53.346;-6.296;2023-04-06T01:20:43;8.15;;;2.05;;
64361;SDS011;50685;53.346;-6.296;2023-04-06T01:23:09;10.48;;;1.70;;
64361;SDS011;50685;53.346;-6.296;2023-04-06T01:25:34;6.65;;;1.73;;
64361;SDS011;50685;53.346;-6.296;2023-04-06T01:28:00;6.10;;;1.92;;
64361;SDS011;50685;53.346;-6.296;2023-04-06T01:30:26;11.02;;;2.00;;
64361;SDS011;50685;53.346;-6.296;2023-04-06T01:32:52;6.65;;;2.00;;
64361;SDS011;50685;53.346;-6.296;2023-04-06T01:35:18;8.25;;;2.40;;
64361;SDS011;50685;53.346;-6.296;2023-04-06T01:37:45;7.40;;;1.90;;
64361;SDS011;50685;53.346;-6.296;2023-04-06T01:40:13;5.25;;;2.17;;
64361;SDS011;50685;53.346;-6.296;2023-04-06T01:42:42;12.98;;;2.15;;
64361;SDS011;50685;53.346;-6.296;2023-04-06T01:45:07;10.05;;;2.53;;
64361;SDS011;50685;53.346;-6.296;2023-04-06T01:47:36;4.78;;;2.17;;
64361;SDS011;50685;53.346;-6.296;2023-04-06T01:50:02;7.10;;;2.22;;
64361;SDS011;50685;53.346;-6.296;2023-04-06T01:52:34;10.45;;;2.08;;
64361;SDS011;50685;53.346;-6.296;2023-04-06T01:54:59;5.78;;;2.00;;
64361;SDS011;50685;53.346;-6.296;2023-04-06T01:57:30;7.60;;;1.63;;
64361;SDS011;50685;53.346;-6.296;2023-04-06T02:00:00;8.23;;;1.98;;
64361;SDS011;50685;53.346;-6.296;2023-04-06T02:02:28;5.55;;;1.67;;
64361;SDS011;50685;53.346;-6.296;2023-04-06T02:05:00;8.40;;;2.17;;
64361;SDS011;50685;53.346;-6.296;2023-04-06T02:07:25;10.27;;;2.30;;
64361;SDS011;50685;53.346;-6.296;2023-04-06T02:09:53;6.00;;;1.98;;
64361;SDS011;50685;53.346;-6.296;2023-04-06T02:12:23;9.68;;;2.60;;
64361;SDS011;50685;53.346;-6.296;2023-04-06T02:14:51;5.97;;;2.55;;
64361;SDS011;50685;53.346;-6.296;2023-04-06T02:17:17;10.43;;;2.20;;
64361;SDS011;50685;53.346;-6.296;2023-04-06T02:19:45;14.55;;;2.28;;
64361;SDS011;50685;53.346;-6.296;2023-04-06T02:22:11;13.77;;;2.30;;
64361;SDS011;50685;53.346;-6.296;2023-04-06T02:24:36;6.75;;;2.45;;
64361;SDS011;50685;53.346;-6.296;2023-04-06T02:27:02;11.52;;;2.17;;
64361;SDS011;50685;53.346;-6.296;2023-04-06T02:29:28;20.67;;;2.38;;
64361;SDS011;50685;53.346;-6.296;2023-04-06T02:31:53;11.27;;;2.30;;
64361;SDS011;50685;53.346;-6.296;2023-04-06T02:34:21;13.95;;;2.10;;
64361;SDS011;50685;53.346;-6.296;2023-04-06T02:36:47;9.48;;;2.70;;
64361;SDS011;50685;53.346;-6.296;2023-04-06T02:39:21;14.32;;;2.53;;
64361;SDS011;50685;53.346;-6.296;2023-04-06T02:41:47;19.48;;;2.65;;
64361;SDS011;50685;53.346;-6.296;2023-04-06T02:44:13;8.43;;;2.47;;
64361;SDS011;50685;53.346;-6.296;2023-04-06T02:46:39;15.23;;;2.20;;
64361;SDS011;50685;53.346;-6.296;2023-04-06T02:49:05;14.02;;;2.28;;
64361;SDS011;50685;53.346;-6.296;2023-04-06T02:51:36;11.75;;;2.45;;
64361;SDS011;50685;53.346;-6.296;2023-04-06T02:54:02;12.40;;;2.45;;
64361;SDS011;50685;53.346;-6.296;2023-04-06T02:56:34;14.15;;;3.05;;
64361;SDS011;50685;53.346;-6.296;2023-04-06T02:58:59;17.88;;;3.78;;
64361;SDS011;50685;53.346;-6.296;2023-04-06T03:01:25;15.77;;;2.35;;
64361;SDS011;50685;53.346;-6.296;2023-04-06T03:03:51;12.93;;;2.60;;
64361;SDS011;50685;53.346;-6.296;2023-04-06T03:06:23;10.13;;;2.58;;
64361;SDS011;50685;53.346;-6.296;2023-04-06T03:08:49;10.60;;;2.60;;
64361;SDS011;50685;53.346;-6.296;2023-04-06T03:11:15;8.98;;;2.78;;
64361;SDS011;50685;53.346;-6.296;2023-04-06T03:13:40;14.48;;;2.85;;
64361;SDS011;50685;53.346;-6.296;2023-04-06T03:16:12;10.40;;;2.75;;
64361;SDS011;50685;53.346;-6.296;2023-04-06T03:18:41;13.43;;;2.65;;
64361;SDS011;50685;53.346;-6.296;2023-04-06T03:21:09;11.63;;;2.50;;
64361;SDS011;50685;53.346;-6.296;2023-04-06T03:23:38;17.15;;;2.60;;
64361;SDS011;50685;53.346;-6.296;2023-04-06T03:26:20;15.43;;;3.10;;
64361;SDS011;50685;53.346;-6.296;2023-04-06T03:28:50;11.35;;;2.75;;
64361;SDS011;50685;53.346;-6.296;2023-04-06T03:31:15;16.75;;;2.30;;
64361;SDS011;50685;53.346;-6.296;2023-04-06T03:33:41;10.13;;;2.45;;
64361;SDS011;50685;53.346;-6.296;2023-04-06T03:36:06;8.25;;;2.13;;
64361;SDS011;50685;53.346;-6.296;2023-04-06T03:38:35;11.10;;;2.10;;
64361;SDS011;50685;53.346;-6.296;2023-04-06T03:41:03;11.93;;;2.30;;
64361;SDS011;50685;53.346;-6.296;2023-04-06T03:43:29;13.48;;;2.22;;
64361;SDS011;50685;53.346;-6.296;2023-04-06T03:46:00;8.65;;;2.35;;
64361;SDS011;50685;53.346;-6.296;2023-04-06T03:48:29;10.70;;;2.45;;
64361;SDS011;50685;53.346;-6.296;2023-04-06T03:50:55;15.95;;;2.33;;
64361;SDS011;50685;53.346;-6.296;2023-04-06T03:53:23;7.20;;;2.25;;
64361;SDS011;50685;53.346;-6.296;2023-04-06T03:55:52;6.20;;;2.50;;
64361;SDS011;50685;53.346;-6.296;2023-04-06T03:58:25;11.82;;;2.63;;
64361;SDS011;50685;53.346;-6.296;2023-04-06T04:01:01;7.20;;;2.13;;
64361;SDS011;50685;53.346;-6.296;2023-04-06T04:03:36;9.05;;;2.55;;
64361;SDS011;50685;53.346;-6.296;2023-04-06T04:06:13;6.78;;;2.30;;
64361;SDS011;50685;53.346;-6.296;2023-04-06T04:09:12;11.48;;;2.65;;
64361;SDS011;50685;53.346;-6.296;2023-04-06T04:11:40;7.47;;;1.70;;
64361;SDS011;50685;53.346;-6.296;2023-04-06T04:14:27;12.80;;;2.38;;
64361;SDS011;50685;53.346;-6.296;2023-04-06T04:16:53;7.75;;;3.10;;
64361;SDS011;50685;53.346;-6.296;2023-04-06T04:19:21;14.90;;;2.47;;
64361;SDS011;50685;53.346;-6.296;2023-04-06T04:21:56;7.13;;;2.10;;
64361;SDS011;50685;53.346;-6.296;2023-04-06T04:27:17;9.48;;;2.97;;
64361;SDS011;50685;53.346;-6.296;2023-04-06T04:29:45;11.57;;;2.85;;
64361;SDS011;50685;53.346;-6.296;2023-04-06T04:32:11;12.10;;;1.80;;
64361;SDS011;50685;53.346;-6.296;2023-04-06T04:34:37;6.60;;;1.80;;
64361;SDS011;50685;53.346;-6.296;2023-04-06T04:37:05;9.00;;;1.73;;
64361;SDS011;50685;53.346;-6.296;2023-04-06T04:39:38;8.20;;;1.58;;
64361;SDS011;50685;53.346;-6.296;2023-04-06T04:42:04;13.50;;;2.15;;
64361;SDS011;50685;53.346;-6.296;2023-04-06T04:44:32;12.10;;;1.67;;
64361;SDS011;50685;53.346;-6.296;2023-04-06T04:46:58;12.15;;;1.83;;
64361;SDS011;50685;53.346;-6.296;2023-04-06T04:49:24;8.85;;;1.73;;
64361;SDS011;50685;53.346;-6.296;2023-04-06T04:51:50;3.95;;;1.25;;
64361;SDS011;50685;53.346;-6.296;2023-04-06T04:54:18;7.13;;;1.55;;
64361;SDS011;50685;53.346;-6.296;2023-04-06T04:56:49;7.72;;;1.98;;
64361;SDS011;50685;53.346;-6.296;2023-04-06T05:02:04;8.88;;;1.80;;
64361;SDS011;50685;53.346;-6.296;2023-04-06T05:04:29;8.18;;;2.17;;
64361;SDS011;50685;53.346;-6.296;2023-04-06T05:07:16;6.72;;;2.08;;
64361;SDS011;50685;53.346;-6.296;2023-04-06T05:09:43;10.18;;;1.80;;
64361;SDS011;50685;53.346;-6.296;2023-04-06T05:12:09;10.30;;;1.73;;
64361;SDS011;50685;53.346;-6.296;2023-04-06T05:14:35;7.47;;;2.60;;
64361;SDS011;50685;53.346;-6.296;2023-04-06T05:17:03;11.52;;;1.92;;
64361;SDS011;50685;53.346;-6.296;2023-04-06T05:19:32;8.48;;;2.13;;
64361;SDS011;50685;53.346;-6.296;2023-04-06T05:21:57;11.60;;;2.38;;
64361;SDS011;50685;53.346;-6.296;2023-04-06T05:24:26;13.88;;;3.15;;
64361;SDS011;50685;53.346;-6.296;2023-04-06T05:26:54;7.30;;;1.67;;
64361;SDS011;50685;53.346;-6.296;2023-04-06T05:29:20;13.57;;;2.10;;
64361;SDS011;50685;53.346;-6.296;2023-04-06T05:31:46;9.07;;;2.58;;
64361;SDS011;50685;53.346;-6.296;2023-04-06T05:34:12;13.43;;;2.25;;
64361;SDS011;50685;53.346;-6.296;2023-04-06T05:36:46;9.55;;;2.83;;
64361;SDS011;50685;53.346;-6.296;2023-04-06T05:39:14;15.55;;;2.70;;
64361;SDS011;50685;53.346;-6.296;2023-04-06T05:41:40;10.52;;;1.67;;
64361;SDS011;50685;53.346;-6.296;2023-04-06T05:44:08;10.65;;;2.28;;
64361;SDS011;50685;53.346;-6.296;2023-04-06T05:46:46;17.80;;;3.40;;
64361;SDS011;50685;53.346;-6.296;2023-04-06T05:49:12;12.55;;;2.95;;
64361;SDS011;50685;53.346;-6.296;2023-04-06T05:51:37;13.10;;;2.80;;
64361;SDS011;50685;53.346;-6.296;2023-04-06T05:54:06;11.02;;;2.35;;
64361;SDS011;50685;53.346;-6.296;2023-04-06T05:56:34;14.57;;;2.45;;
64361;SDS011;50685;53.346;-6.296;2023-04-06T05:59:02;10.02;;;2.95;;
64361;SDS011;50685;53.346;-6.296;2023-04-06T06:01:28;13.73;;;2.50;;
64361;SDS011;50685;53.346;-6.296;2023-04-06T06:03:54;19.10;;;2.72;;
64361;SDS011;50685;53.346;-6.296;2023-04-06T06:06:19;14.18;;;2.75;;
64361;SDS011;50685;53.346;-6.296;2023-04-06T06:08:45;15.70;;;3.15;;
64361;SDS011;50685;53.346;-6.296;2023-04-06T06:11:11;7.93;;;2.05;;
64361;SDS011;50685;53.346;-6.296;2023-04-06T06:13:36;12.25;;;1.92;;
64361;SDS011;50685;53.346;-6.296;2023-04-06T06:16:09;9.90;;;2.42;;
64361;SDS011;50685;53.346;-6.296;2023-04-06T06:18:35;14.77;;;4.15;;
64361;SDS011;50685;53.346;-6.296;2023-04-06T06:21:09;9.63;;;3.00;;
64361;SDS011;50685;53.346;-6.296;2023-04-06T06:23:36;11.30;;;2.30;;
64361;SDS011;50685;53.346;-6.296;2023-04-06T06:26:04;9.10;;;2.67;;
64361;SDS011;50685;53.346;-6.296;2023-04-06T06:28:38;8.70;;;2.75;;
64361;SDS011;50685;53.346;-6.296;2023-04-06T06:31:10;7.63;;;2.67;;
64361;SDS011;50685;53.346;-6.296;2023-04-06T06:33:49;9.77;;;2.55;;
64361;SDS011;50685;53.346;-6.296;2023-04-06T06:36:31;11.95;;;2.83;;
64361;SDS011;50685;53.346;-6.296;2023-04-06T06:38:58;6.75;;;2.33;;
64361;SDS011;50685;53.346;-6.296;2023-04-06T06:41:34;10.93;;;2.55;;
64361;SDS011;50685;53.346;-6.296;2023-04-06T06:44:11;8.43;;;2.63;;
64361;SDS011;50685;53.346;-6.296;2023-04-06T06:49:13;11.63;;;2.50;;
64361;SDS011;50685;53.346;-6.296;2023-04-06T06:51:39;10.10;;;1.83;;
64361;SDS011;50685;53.346;-6.296;2023-04-06T06:54:08;7.93;;;2.42;;
64361;SDS011;50685;53.346;-6.296;2023-04-06T06:56:36;8.32;;;2.05;;
64361;SDS011;50685;53.346;-6.296;2023-04-06T06:59:04;7.95;;;2.28;;
64361;SDS011;50685;53.346;-6.296;2023-04-06T07:01:36;4.50;;;1.73;;
64361;SDS011;50685;53.346;-6.296;2023-04-06T07:04:04;5.95;;;1.80;;
64361;SDS011;50685;53.346;-6.296;2023-04-06T07:06:32;10.23;;;2.17;;
64361;SDS011;50685;53.346;-6.296;2023-04-06T07:09:03;10.80;;;2.47;;
64361;SDS011;50685;53.346;-6.296;2023-04-06T07:11:37;12.70;;;2.28;;
64361;SDS011;50685;53.346;-6.296;2023-04-06T07:14:44;9.05;;;1.95;;
64361;SDS011;50685;53.346;-6.296;2023-04-06T07:17:15;4.00;;;1.70;;
64361;SDS011;50685;53.346;-6.296;2023-04-06T07:22:45;4.05;;;1.70;;
64361;SDS011;50685;53.346;-6.296;2023-04-06T07:25:29;4.55;;;1.45;;
64361;SDS011;50685;53.346;-6.296;2023-04-06T07:28:33;10.02;;;1.85;;
64361;SDS011;50685;53.346;-6.296;2023-04-06T07:33:55;4.07;;;1.45;;
64361;SDS011;50685;53.346;-6.296;2023-04-06T07:36:24;4.07;;;1.35;;
64361;SDS011;50685;53.346;-6.296;2023-04-06T07:39:19;3.45;;;1.40;;
64361;SDS011;50685;53.346;-6.296;2023-04-06T07:41:55;3.05;;;1.27;;
64361;SDS011;50685;53.346;-6.296;2023-04-06T07:44:21;8.02;;;1.40;;
64361;SDS011;50685;53.346;-6.296;2023-04-06T07:46:46;2.53;;;1.40;;
64361;SDS011;50685;53.346;-6.296;2023-04-06T07:49:17;5.80;;;1.75;;
64361;SDS011;50685;53.346;-6.296;2023-04-06T07:51:43;7.28;;;1.33;;
64361;SDS011;50685;53.346;-6.296;2023-04-06T07:54:12;5.60;;;1.50;;
64361;SDS011;50685;53.346;-6.296;2023-04-06T07:56:38;5.65;;;1.58;;
64361;SDS011;50685;53.346;-6.296;2023-04-06T07:59:06;4.93;;;1.35;;
64361;SDS011;50685;53.346;-6.296;2023-04-06T08:01:43;4.13;;;1.25;;
64361;SDS011;50685;53.346;-6.296;2023-04-06T08:04:09;3.10;;;1.13;;
64361;SDS011;50685;53.346;-6.296;2023-04-06T08:06:38;5.90;;;1.55;;
64361;SDS011;50685;53.346;-6.296;2023-04-06T08:09:03;8.07;;;2.10;;
64361;SDS011;50685;53.346;-6.296;2023-04-06T08:11:29;3.92;;;1.52;;
64361;SDS011;50685;53.346;-6.296;2023-04-06T08:13:55;4.57;;;1.60;;
64361;SDS011;50685;53.346;-6.296;2023-04-06T08:16:22;10.82;;;1.70;;
64361;SDS011;50685;53.346;-6.296;2023-04-06T08:18:50;4.90;;;1.30;;
64361;SDS011;50685;53.346;-6.296;2023-04-06T08:21:34;1.85;;;1.00;;
64361;SDS011;50685;53.346;-6.296;2023-04-06T08:24:04;4.75;;;1.10;;
64361;SDS011;50685;53.346;-6.296;2023-04-06T08:26:33;5.28;;;1.15;;
64361;SDS011;50685;53.346;-6.296;2023-04-06T08:28:58;3.45;;;1.30;;
64361;SDS011;50685;53.346;-6.296;2023-04-06T08:31:27;3.65;;;0.90;;
64361;SDS011;50685;53.346;-6.296;2023-04-06T08:34:04;11.15;;;1.20;;
64361;SDS011;50685;53.346;-6.296;2023-04-06T08:36:40;3.75;;;1.02;;
64361;SDS011;50685;53.346;-6.296;2023-04-06T08:39:27;3.25;;;1.25;;
64361;SDS011;50685;53.346;-6.296;2023-04-06T08:41:55;16.75;;;2.50;;
64361;SDS011;50685;53.346;-6.296;2023-04-06T08:44:39;7.95;;;1.35;;
64361;SDS011;50685;53.346;-6.296;2023-04-06T08:47:17;6.38;;;1.40;;
64361;SDS011;50685;53.346;-6.296;2023-04-06T08:49:52;5.25;;;1.92;;
64361;SDS011;50685;53.346;-6.296;2023-04-06T08:52:19;6.38;;;1.45;;
64361;SDS011;50685;53.346;-6.296;2023-04-06T08:54:47;5.47;;;1.50;;
64361;SDS011;50685;53.346;-6.296;2023-04-06T08:57:16;2.15;;;1.45;;
64361;SDS011;50685;53.346;-6.296;2023-04-06T08:59:54;3.45;;;1.00;;
64361;SDS011;50685;53.346;-6.296;2023-04-06T09:09:29;8.50;;;1.08;;
64361;SDS011;50685;53.346;-6.296;2023-04-06T09:12:03;3.47;;;0.82;;
64361;SDS011;50685;53.346;-6.296;2023-04-06T09:22:17;4.18;;;1.10;;
64361;SDS011;50685;53.346;-6.296;2023-04-06T09:28:07;6.40;;;1.13;;
64361;SDS011;50685;53.346;-6.296;2023-04-06T09:38:10;10.80;;;1.70;;
64361;SDS011;50685;53.346;-6.296;2023-04-06T09:48:06;2.97;;;0.80;;
64361;SDS011;50685;53.346;-6.296;2023-04-06T09:51:00;5.53;;;1.05;;
64361;SDS011;50685;53.346;-6.296;2023-04-06T09:56:56;6.13;;;1.38;;
64361;SDS011;50685;53.346;-6.296;2023-04-06T10:00:20;8.93;;;1.67;;
64361;SDS011;50685;53.346;-6.296;2023-04-06T10:17:12;3.47;;;1.05;;
64361;SDS011;50685;53.346;-6.296;2023-04-06T10:38:03;6.72;;;1.13;;
64361;SDS011;50685;53.346;-6.296;2023-04-06T10:40:30;4.95;;;0.93;;
64361;SDS011;50685;53.346;-6.296;2023-04-06T10:43:10;6.45;;;0.82;;
64361;SDS011;50685;53.346;-6.296;2023-04-06T10:45:52;4.18;;;1.65;;
64361;SDS011;50685;53.346;-6.296;2023-04-06T11:01:49;8.15;;;1.10;;
64361;SDS011;50685;53.346;-6.296;2023-04-06T11:18:02;8.05;;;1.00;;
64361;SDS011;50685;53.346;-6.296;2023-04-06T11:21:42;3.63;;;0.98;;
64361;SDS011;50685;53.346;-6.296;2023-04-06T12:19:00;4.53;;;0.75;;
64361;SDS011;50685;53.346;-6.296;2023-04-06T12:21:33;5.63;;;0.68;;
64361;SDS011;50685;53.346;-6.296;2023-04-06T12:24:27;2.83;;;1.05;;
64361;SDS011;50685;53.346;-6.296;2023-04-06T12:27:18;1.90;;;0.75;;
64361;SDS011;50685;53.346;-6.296;2023-04-06T12:29:45;1.85;;;0.88;;
64361;SDS011;50685;53.346;-6.296;2023-04-06T12:32:13;4.40;;;1.25;;
64361;SDS011;50685;53.346;-6.296;2023-04-06T12:34:44;2.70;;;0.80;;
64361;SDS011;50685;53.346;-6.296;2023-04-06T12:37:30;5.97;;;0.85;;
64361;SDS011;50685;53.346;-6.296;2023-04-06T12:39:55;2.42;;;1.00;;
64361;SDS011;50685;53.346;-6.296;2023-04-06T12:42:21;4.40;;;1.42;;
64361;SDS011;50685;53.346;-6.296;2023-04-06T12:44:55;3.05;;;1.23;;
64361;SDS011;50685;53.346;-6.296;2023-04-06T12:47:25;6.25;;;0.95;;
64361;SDS011;50685;53.346;-6.296;2023-04-06T12:49:56;4.53;;;0.95;;
64361;SDS011;50685;53.346;-6.296;2023-04-06T12:52:25;4.70;;;0.95;;
64361;SDS011;50685;53.346;-6.296;2023-04-06T12:54:58;4.85;;;1.02;;
64361;SDS011;50685;53.346;-6.296;2023-04-06T12:57:25;2.85;;;0.82;;
64361;SDS011;50685;53.346;-6.296;2023-04-06T12:59:59;3.70;;;0.90;;
64361;SDS011;50685;53.346;-6.296;2023-04-06T13:02:29;4.43;;;1.40;;
64361;SDS011;50685;53.346;-6.296;2023-04-06T13:05:07;5.07;;;1.00;;
64361;SDS011;50685;53.346;-6.296;2023-04-06T13:07:42;2.43;;;0.53;;
64361;SDS011;50685;53.346;-6.296;2023-04-06T13:10:19;4.95;;;0.55;;
64361;SDS011;50685;53.346;-6.296;2023-04-06T13:12:47;5.50;;;1.02;;
64361;SDS011;50685;53.346;-6.296;2023-04-06T13:15:12;1.05;;;0.70;;
64361;SDS011;50685;53.346;-6.296;2023-04-06T13:17:38;1.35;;;0.52;;
64361;SDS011;50685;53.346;-6.296;2023-04-06T13:20:04;3.70;;;0.80;;
64361;SDS011;50685;53.346;-6.296;2023-04-06T13:22:33;3.10;;;0.60;;
64361;SDS011;50685;53.346;-6.296;2023-04-06T13:29:13;1.63;;;0.65;;
64361;SDS011;50685;53.346;-6.296;2023-04-06T13:31:38;4.47;;;0.80;;
64361;SDS011;50685;53.346;-6.296;2023-04-06T13:34:04;5.20;;;0.75;;
64361;SDS011;50685;53.346;-6.296;2023-04-06T13:39:00;3.92;;;0.90;;
64361;SDS011;50685;53.346;-6.296;2023-04-06T13:41:25;3.13;;;1.23;;
64361;SDS011;50685;53.346;-6.296;2023-04-06T13:43:51;2.50;;;0.55;;
64361;SDS011;50685;53.346;-6.296;2023-04-06T13:46:23;0.65;;;0.40;;
64361;SDS011;50685;53.346;-6.296;2023-04-06T13:48:58;2.92;;;0.50;;
64361;SDS011;50685;53.346;-6.296;2023-04-06T13:51:23;1.60;;;0.80;;
64361;SDS011;50685;53.346;-6.296;2023-04-06T13:53:49;4.47;;;0.75;;
64361;SDS011;50685;53.346;-6.296;2023-04-06T13:56:17;1.90;;;0.90;;
64361;SDS011;50685;53.346;-6.296;2023-04-06T13:58:43;8.18;;;1.55;;
64361;SDS011;50685;53.346;-6.296;2023-04-06T14:01:10;4.00;;;1.35;;
64361;SDS011;50685;53.346;-6.296;2023-04-06T14:03:35;3.08;;;1.23;;
64361;SDS011;50685;53.346;-6.296;2023-04-06T14:06:10;3.85;;;0.80;;
64361;SDS011;50685;53.346;-6.296;2023-04-06T14:08:38;3.15;;;0.73;;
64361;SDS011;50685;53.346;-6.296;2023-04-06T14:11:04;4.93;;;1.08;;
64361;SDS011;50685;53.346;-6.296;2023-04-06T14:13:33;9.15;;;0.80;;
64361;SDS011;50685;53.346;-6.296;2023-04-06T14:18:32;0.93;;;0.50;;
64361;SDS011;50685;53.346;-6.296;2023-04-06T14:20:59;3.20;;;0.60;;
64361;SDS011;50685;53.346;-6.296;2023-04-06T14:23:27;1.23;;;0.50;;
64361;SDS011;50685;53.346;-6.296;2023-04-06T14:26:06;1.38;;;0.70;;
64361;SDS011;50685;53.346;-6.296;2023-04-06T14:28:33;3.25;;;0.73;;
64361;SDS011;50685;53.346;-6.296;2023-04-06T14:31:13;2.85;;;0.45;;
64361;SDS011;50685;53.346;-6.296;2023-04-06T14:33:45;2.60;;;0.55;;
64361;SDS011;50685;53.346;-6.296;2023-04-06T14:36:16;2.55;;;0.60;;
64361;SDS011;50685;53.346;-6.296;2023-04-06T14:38:47;8.07;;;0.55;;
64361;SDS011;50685;53.346;-6.296;2023-04-06T14:41:21;2.40;;;0.60;;
64361;SDS011;50685;53.346;-6.296;2023-04-06T14:43:47;3.25;;;0.50;;
64361;SDS011;50685;53.346;-6.296;2023-04-06T14:46:13;4.00;;;0.70;;
64361;SDS011;50685;53.346;-6.296;2023-04-06T14:49:00;3.38;;;0.60;;
64361;SDS011;50685;53.346;-6.296;2023-04-06T14:54:57;2.28;;;0.50;;
64361;SDS011;50685;53.346;-6.296;2023-04-06T15:01:50;3.08;;;0.45;;
64361;SDS011;50685;53.346;-6.296;2023-04-06T15:04:43;4.82;;;0.70;;
64361;SDS011;50685;53.346;-6.296;2023-04-06T15:14:08;3.55;;;0.55;;
64361;SDS011;50685;53.346;-6.296;2023-04-06T15:28:29;2.35;;;0.80;;
64361;SDS011;50685;53.346;-6.296;2023-04-06T15:37:48;2.55;;;0.40;;
64361;SDS011;50685;53.346;-6.296;2023-04-06T15:53:32;3.50;;;0.40;;
64361;SDS011;50685;53.346;-6.296;2023-04-06T15:56:22;1.13;;;0.45;;
64361;SDS011;50685;53.346;-6.296;2023-04-06T15:59:05;2.22;;;0.50;;
64361;SDS011;50685;53.346;-6.296;2023-04-06T16:02:05;2.80;;;0.60;;
64361;SDS011;50685;53.346;-6.296;2023-04-06T16:04:34;2.30;;;0.30;;
64361;SDS011;50685;53.346;-6.296;2023-04-06T16:15:29;0.45;;;0.30;;
64361;SDS011;50685;53.346;-6.296;2023-04-06T16:17:57;2.40;;;0.30;;
64361;SDS011;50685;53.346;-6.296;2023-04-06T16:24:59;1.30;;;0.50;;
64361;SDS011;50685;53.346;-6.296;2023-04-06T16:31:05;6.72;;;0.50;;
64361;SDS011;50685;53.346;-6.296;2023-04-06T16:50:18;0.45;;;0.38;;
64361;SDS011;50685;53.346;-6.296;2023-04-06T16:53:18;2.13;;;0.47;;
64361;SDS011;50685;53.346;-6.296;2023-04-06T16:55:46;4.63;;;0.85;;
64361;SDS011;50685;53.346;-6.296;2023-04-06T16:58:24;0.40;;;0.40;;
64361;SDS011;50685;53.346;-6.296;2023-04-06T17:04:38;4.95;;;0.47;;
64361;SDS011;50685;53.346;-6.296;2023-04-06T17:07:04;0.38;;;0.35;;
64361;SDS011;50685;53.346;-6.296;2023-04-06T17:15:33;0.68;;;0.40;;
64361;SDS011;50685;53.346;-6.296;2023-04-06T17:18:02;1.40;;;0.47;;
64361;SDS011;50685;53.346;-6.296;2023-04-06T17:20:46;5.28;;;0.70;;
64361;SDS011;50685;53.346;-6.296;2023-04-06T17:23:21;1.90;;;0.50;;
64361;SDS011;50685;53.346;-6.296;2023-04-06T17:25:51;0.55;;;0.40;;
64361;SDS011;50685;53.346;-6.296;2023-04-06T17:28:25;2.40;;;0.50;;
64361;SDS011;50685;53.346;-6.296;2023-04-06T17:41:59;1.52;;;0.65;;
64361;SDS011;50685;53.346;-6.296;2023-04-06T17:57:24;2.50;;;0.57;;
64361;SDS011;50685;53.346;-6.296;2023-04-06T17:59:59;2.38;;;0.60;;
64361;SDS011;50685;53.346;-6.296;2023-04-06T18:02:26;0.80;;;0.47;;
64361;SDS011;50685;53.346;-6.296;2023-04-06T18:15:00;1.42;;;0.40;;
64361;SDS011;50685;53.346;-6.296;2023-04-06T18:17:26;0.40;;;0.40;;
64361;SDS011;50685;53.346;-6.296;2023-04-06T18:19:58;5.85;;;0.60;;
64361;SDS011;50685;53.346;-6.296;2023-04-06T18:29:28;3.78;;;0.98;;
64361;SDS011;50685;53.346;-6.296;2023-04-06T18:39:04;4.32;;;0.60;;
64361;SDS011;50685;53.346;-6.296;2023-04-06T18:42:13;3.17;;;0.80;;
64361;SDS011;50685;53.346;-6.296;2023-04-06T18:45:25;2.63;;;0.40;;
64361;SDS011;50685;53.346;-6.296;2023-04-06T18:51:32;4.60;;;0.70;;
64361;SDS011;50685;53.346;-6.296;2023-04-06T18:54:12;1.98;;;0.60;;
64361;SDS011;50685;53.346;-6.296;2023-04-06T18:56:40;1.10;;;0.60;;
64361;SDS011;50685;53.346;-6.296;2023-04-06T18:59:08;2.75;;;0.60;;
64361;SDS011;50685;53.346;-6.296;2023-04-06T19:02:01;1.27;;;1.10;;
64361;SDS011;50685;53.346;-6.296;2023-04-06T19:10:41;3.30;;;0.80;;
64361;SDS011;50685;53.346;-6.296;2023-04-06T19:16:15;3.70;;;0.82;;
64361;SDS011;50685;53.346;-6.296;2023-04-06T19:18:44;3.97;;;0.77;;
64361;SDS011;50685;53.346;-6.296;2023-04-06T19:21:16;3.75;;;2.15;;
64361;SDS011;50685;53.346;-6.296;2023-04-06T19:23:46;4.78;;;1.20;;
64361;SDS011;50685;53.346;-6.296;2023-04-06T19:26:24;1.83;;;0.88;;
64361;SDS011;50685;53.346;-6.296;2023-04-06T19:29:02;3.00;;;0.98;;
64361;SDS011;50685;53.346;-6.296;2023-04-06T19:31:30;1.70;;;0.90;;
64361;SDS011;50685;53.346;-6.296;2023-04-06T19:33:56;3.25;;;1.10;;
64361;SDS011;50685;53.346;-6.296;2023-04-06T19:36:25;2.08;;;0.77;;
64361;SDS011;50685;53.346;-6.296;2023-04-06T19:38:50;2.22;;;0.70;;
64361;SDS011;50685;53.346;-6.296;2023-04-06T19:41:19;4.60;;;1.08;;
64361;SDS011;50685;53.346;-6.296;2023-04-06T19:43:45;6.10;;;1.10;;
64361;SDS011;50685;53.346;-6.296;2023-04-06T19:46:11;3.28;;;1.83;;
64361;SDS011;50685;53.346;-6.296;2023-04-06T19:48:40;5.20;;;2.88;;
64361;SDS011;50685;53.346;-6.296;2023-04-06T19:51:05;4.18;;;2.60;;
64361;SDS011;50685;53.346;-6.296;2023-04-06T19:53:31;7.00;;;2.22;;
64361;SDS011;50685;53.346;-6.296;2023-04-06T19:56:02;5.88;;;2.80;;
64361;SDS011;50685;53.346;-6.296;2023-04-06T19:58:30;6.28;;;3.55;;
64361;SDS011;50685;53.346;-6.296;2023-04-06T20:00:56;7.20;;;3.50;;
64361;SDS011;50685;53.346;-6.296;2023-04-06T20:03:22;6.38;;;3.90;;
64361;SDS011;50685;53.346;-6.296;2023-04-06T20:05:47;5.63;;;3.90;;
64361;SDS011;50685;53.346;-6.296;2023-04-06T20:08:13;10.38;;;4.20;;
64361;SDS011;50685;53.346;-6.296;2023-04-06T20:10:39;4.95;;;3.40;;
64361;SDS011;50685;53.346;-6.296;2023-04-06T20:13:07;8.48;;;3.65;;
64361;SDS011;50685;53.346;-6.296;2023-04-06T20:15:33;5.70;;;3.30;;
64361;SDS011;50685;53.346;-6.296;2023-04-06T20:17:58;5.60;;;3.22;;